Latest Weather Observations for Warburton

IDW60801

Issued at 1:05 pm WST Saturday 23 August 2014 (issued every 30 minutes, with the page automatically refreshed every 10 minutes)

About weather observations | Map of weather stations | Latest weather observations for WA | Other Formats
Station Details ID: 013011 Name: WARBURTON AIRFIELD Lat: -26.13 Lon: 126.58 Height: 459.0 m
Data from the previous 72 hours. | See also: Recent months at Warburton
Date/Time
WST
Temp
°C
App
Temp
°C
Dew
Point
Rel
Hum
%
Delta-T
°C
Wind Press
QNH
hPa
Press
MSL
hPa
Rain
since 9 am
mm
Dir
 
Spd
km/h
Gust
km/h
Spd
kts
Gust
kts
23/01:00pm 26.2 23.1 1.5 20 12.0 NNW 7 11 4 6 1023.5 - 0.0
23/12:30pm 25.2 22.0 3.2 24 11.0 S 9 15 5 8 1023.9 - 0.0
23/12:00pm 25.0 21.6 4.2 26 10.5 E 11 17 6 9 1024.3 1023.5 0.0
23/11:30am 24.0 21.0 5.8 31 9.5 E 11 17 6 9 1024.6 - 0.0
23/11:00am 22.8 18.8 6.6 35 8.5 ESE 17 26 9 14 1024.9 - 0.0
23/10:30am 21.9 18.0 7.3 39 7.7 E 17 26 9 14 1025.3 - 0.0
23/10:00am 21.2 16.8 7.4 41 7.3 E 20 26 11 14 1025.6 - 0.0
23/09:30am 19.5 14.8 7.9 47 6.1 ESE 22 33 12 18 1025.8 - 0.0
23/09:00am 19.0 14.0 8.1 49 5.7 E 24 35 13 19 1025.8 1025.1 0.0
23/08:30am 17.8 12.5 8.4 54 4.9 E 26 37 14 20 1025.6 - 0.0
23/08:00am 16.8 11.1 8.5 58 4.3 E 28 41 15 22 1025.4 - 0.0
23/07:30am 15.9 9.8 8.4 61 3.9 ESE 30 46 16 25 1025.1 - 0.0
23/07:00am 14.8 9.4 7.8 63 3.6 ESE 26 39 14 21 1024.7 - 0.0
23/06:30am 13.8 8.4 6.2 60 3.7 ESE 24 32 13 17 1024.2 - 0.0
23/06:00am 13.6 8.2 4.7 55 4.2 ESE 22 32 12 17 1023.9 1023.1 0.0
23/05:30am 14.2 8.4 4.2 51 4.7 ESE 24 32 13 17 1023.6 - 0.0
23/05:00am 13.9 8.5 2.2 45 5.3 ESE 20 28 11 15 1023.2 - 0.0
23/04:30am 14.4 9.1 2.0 43 5.6 ESE 19 26 10 14 1022.8 - 0.0
23/04:00am 14.7 9.8 1.9 42 5.8 ESE 17 22 9 12 1022.4 - 0.0
23/03:30am 15.0 10.5 1.9 41 5.9 ESE 15 22 8 12 1022.1 - 0.0
23/03:00am 12.8 7.9 -3.0 33 6.3 SE 13 15 7 8 1022.1 1021.3 0.0
23/02:30am 12.3 8.1 -4.3 31 6.4 S 9 13 5 7 1021.9 - 0.0
23/02:00am 12.8 7.8 -4.3 30 6.6 SW 13 20 7 11 1021.8 - 0.0
23/01:30am 9.4 6.8 -4.5 37 5.1 CALM 0 0 0 0 1021.3 - 0.0
23/01:00am 9.5 7.0 -4.4 37 5.2 CALM 0 0 0 0 1021.3 - 0.0
23/12:30am 11.0 8.5 -3.8 35 5.7 CALM 0 0 0 0 1021.5 - 0.0
23/12:00am 11.0 8.5 -4.2 34 5.7 NNE 0 0 0 0 1021.7 1020.9 0.0
 
Date/Time
WST
Temp
°C
App
Temp
°C
Dew
Point
Rel
Hum
%
Delta-T
°C
Wind Press
QNH
hPa
Press
MSL
hPa
Rain
since 9 am
mm
Dir
 
Spd
km/h
Gust
km/h
Spd
kts
Gust
kts
22/11:30pm 11.8 9.3 -4.3 32 6.1 CALM 0 0 0 0 1021.8 - 0.0
22/11:00pm 13.3 9.6 -4.3 29 6.8 NNE 6 9 3 5 1021.9 - 0.0
22/10:30pm 14.8 10.3 -3.5 28 7.3 NNE 11 17 6 9 1022.0 - 0.0
22/10:00pm 14.1 9.9 -4.1 28 7.2 NE 9 13 5 7 1022.0 - 0.0
22/09:30pm 14.5 9.9 -3.8 28 7.3 S 11 17 6 9 1021.9 - 0.0
22/09:00pm 14.1 9.9 -4.1 28 7.1 NE 9 11 5 6 1021.8 1021.0 0.0
22/08:30pm 15.0 11.4 -3.8 27 7.5 N 6 7 3 4 1021.7 - 0.0
22/08:00pm 15.8 13.3 -3.6 26 7.8 CALM 0 0 0 0 1021.3 - 0.0
22/07:30pm 17.8 15.3 -4.2 22 9.0 CALM 0 0 0 0 1021.0 - 0.0
22/07:00pm 17.1 13.3 -3.6 24 8.5 S 7 9 4 5 1020.6 - 0.0
22/06:30pm 19.1 15.8 -4.4 20 9.7 S 4 6 2 3 1020.2 - 0.0
22/06:00pm 21.6 19.0 -4.5 17 10.9 CALM 0 0 0 0 1019.8 1019.0 0.0
22/05:30pm 25.0 21.2 -5.3 13 12.9 W 6 7 3 4 1019.6 - 0.0
22/05:00pm 27.2 23.2 -5.8 11 14.2 SW 7 13 4 7 1019.4 - 0.0
22/04:30pm 27.4 24.4 -5.6 11 14.3 NNW 2 7 1 4 1019.2 - 0.0
22/04:00pm 28.0 22.8 -6.4 10 14.8 WNW 13 22 7 12 1018.9 - 0.0
22/03:30pm 28.3 24.2 -6.2 10 14.9 W 7 15 4 8 1018.7 - 0.0
22/03:00pm 28.4 23.2 -6.1 10 14.9 N 13 19 7 10 1018.7 1017.9 0.0
22/02:30pm 28.8 24.4 -5.8 10 15.1 NW 9 24 5 13 1018.7 - 0.0
22/02:00pm 28.5 24.1 -6.0 10 15.0 S 9 19 5 10 1018.8 - 0.0
22/01:30pm 28.2 23.8 -6.3 10 14.9 N 9 17 5 9 1019.0 - 0.0
22/01:00pm 27.7 21.1 -6.6 10 14.6 N 20 33 11 18 1019.3 - 0.0
22/12:30pm 28.6 22.3 -6.0 10 15.0 NW 19 28 10 15 1019.6 - 0.0
22/12:00pm 27.8 22.2 -6.6 10 14.7 NW 15 22 8 12 1020.0 1019.2 0.0
22/11:30am 27.1 20.5 -7.1 10 14.4 N 20 30 11 16 1020.5 - 0.0
22/11:00am 27.3 20.1 -5.7 11 14.3 N 24 33 13 18 1020.9 - 0.0
22/10:30am 26.4 18.3 -6.4 11 13.9 N 28 37 15 20 1021.2 - 0.0
22/10:00am 25.6 17.2 -5.9 12 13.4 N 30 39 16 21 1021.5 - 0.0
22/09:30am 25.1 16.4 -5.2 13 13.0 N 32 37 17 20 1021.7 - 0.0
22/09:00am 24.1 16.1 -6.0 13 12.5 NNW 28 35 15 19 1021.7 1020.9 0.0
22/08:30am 22.8 15.2 -5.2 15 11.7 N 26 37 14 20 1021.6 - 0.0
22/08:00am 20.8 14.0 -5.1 17 10.7 N 22 35 12 19 1021.5 - 0.0
22/07:30am 17.7 12.8 -3.7 23 8.8 N 13 19 7 10 1021.5 - 0.0
22/07:00am 14.3 10.1 -3.9 28 7.2 N 9 11 5 6 1021.1 - 0.0
22/06:30am 10.3 6.4 -4.5 35 5.5 N 7 9 4 5 1020.7 - 0.0
22/06:00am 9.7 6.4 -4.6 36 5.3 NW 4 9 2 5 1020.4 1019.6 0.0
22/05:30am 9.9 6.0 -4.8 35 5.4 N 7 11 4 6 1020.0 - 0.0
22/05:00am 10.9 6.6 -5.1 32 5.9 N 9 11 5 6 1019.7 - 0.0
22/04:30am 11.5 7.2 -5.0 31 6.2 N 9 11 5 6 1019.3 - 0.0
22/04:00am 12.2 7.9 -5.3 29 6.6 NW 9 13 5 7 1019.3 - 0.0
22/03:30am 13.5 8.5 -4.6 28 7.0 N 13 17 7 9 1018.8 - 0.0
22/03:00am 12.6 7.9 -4.9 29 6.6 N 11 13 6 7 1018.8 1018.0 0.0
22/02:30am 13.4 8.7 -5.2 27 7.1 N 11 15 6 8 1018.8 - 0.0
22/02:00am 15.0 9.9 -4.8 25 7.7 N 13 17 7 9 1018.8 - 0.0
22/01:30am 14.4 9.7 -4.8 26 7.5 N 11 15 6 8 1018.9 - 0.0
22/01:00am 14.9 10.2 -4.9 25 7.7 N 11 15 6 8 1018.9 - 0.0
22/12:30am 15.2 10.1 -5.2 24 7.9 N 13 17 7 9 1019.2 - 0.0
22/12:00am 15.3 10.6 -5.1 24 7.9 N 11 15 6 8 1019.2 1018.4 0.0
 
Date/Time
WST
Temp
°C
App
Temp
°C
Dew
Point
Rel
Hum
%
Delta-T
°C
Wind Press
QNH
hPa
Press
MSL
hPa
Rain
since 9 am
mm
Dir
 
Spd
km/h
Gust
km/h
Spd
kts
Gust
kts
21/11:30pm 14.7 10.0 -5.1 25 7.7 N 11 15 6 8 1019.3 - 0.0
21/11:00pm 15.2 10.5 -5.2 24 7.9 N 11 13 6 7 1019.2 - 0.0
21/10:30pm 15.1 10.0 -4.8 25 7.8 NNE 13 15 7 8 1019.3 - 0.0
21/10:00pm 15.7 11.0 -4.8 24 8.1 N 11 13 6 7 1019.4 - 0.0
21/09:30pm 16.3 11.6 -4.8 23 8.4 N 11 13 6 7 1019.5 - 0.0
21/09:00pm 16.5 11.5 -4.7 23 8.4 NNE 13 13 7 7 1019.4 1018.6 0.0
21/08:30pm 17.0 12.3 -4.8 22 8.7 NNE 11 13 6 7 1019.4 - 0.0
21/08:00pm 18.1 13.4 -5.2 20 9.3 N 11 15 6 8 1019.2 - 0.0
21/07:30pm 18.2 13.5 -5.1 20 9.4 N 11 11 6 6 1019.0 - 0.0
21/07:00pm 19.0 13.9 -5.1 19 9.8 NNE 13 15 7 8 1018.6 - 0.0
21/06:30pm 19.9 15.2 -5.1 18 10.2 NNE 11 13 6 7 1018.3 - 0.0
21/06:00pm 21.7 17.0 -5.2 16 11.1 N 11 13 6 7 1017.9 1017.1 0.0
21/05:30pm 23.6 18.1 -5.4 14 12.2 N 15 19 8 10 1017.6 - 0.0
21/05:00pm 25.5 20.3 -6.0 12 13.3 N 13 19 7 10 1017.5 - 0.0
21/04:30pm 26.4 21.2 -6.4 11 13.9 NNW 13 22 7 12 1017.3 - 0.0
21/04:00pm 26.7 20.4 -6.2 11 14.0 NNW 19 28 10 15 1017.0 - 0.0
21/03:30pm 26.9 20.0 -6.0 11 14.1 NNW 22 32 12 17 1016.7 - 0.0
21/03:00pm 27.1 21.5 -5.9 11 14.2 WNW 15 22 8 12 1016.7 1015.9 0.0
21/02:30pm 26.8 19.9 -6.1 11 14.1 NW 22 32 12 17 1016.6 - 0.0
21/02:00pm 27.2 19.9 -5.8 11 14.2 NW 24 35 13 19 1016.9 - 0.0
21/01:30pm 27.5 21.2 -5.6 11 14.4 NW 19 26 10 14 1017.0 - 0.0
21/01:00pm 26.7 21.6 -5.0 12 13.8 N 13 20 7 11 1017.4 - 0.0
21/12:30pm 26.9 22.6 -4.9 12 13.9 WNW 9 22 5 12 1017.7 - 0.0
21/12:00pm 26.2 19.9 -5.4 12 13.6 NNW 19 28 10 15 1018.2 1017.4 0.0
21/11:30am 26.6 19.4 -5.1 12 13.8 NNW 24 35 13 19 1018.7 - 0.0
21/11:00am 25.8 18.3 -4.7 13 13.3 N 26 33 14 18 1019.3 - 0.0
21/10:30am 24.6 16.3 -4.6 14 12.6 NNW 30 37 16 20 1019.6 - 0.0
21/10:00am 24.7 16.9 -3.6 15 12.4 N 28 35 15 19 1019.8 - 0.0
21/09:30am 23.0 14.9 -3.3 17 11.5 N 30 41 16 22 1020.1 - 0.0
21/09:00am 22.1 14.7 -3.3 18 10.9 N 26 35 14 19 1020.2 1019.4 0.0
21/08:30am 20.5 13.1 -3.9 19 10.3 N 26 35 14 19 1020.2 - 0.0
21/08:00am 18.8 12.8 -3.3 22 9.3 N 19 28 10 15 1020.0 - 0.0
21/07:30am 16.7 10.7 -3.4 25 8.2 N 19 26 10 14 1019.8 - 0.0
21/07:00am 14.7 9.4 -3.6 28 7.3 N 15 24 8 13 1019.4 - 0.0
21/06:30am 12.8 7.5 -3.9 31 6.5 NNE 15 20 8 11 1019.0 - 0.0
21/06:00am 11.3 6.7 -4.4 33 5.9 N 11 15 6 8 1018.6 1017.8 0.0
21/05:30am 11.6 6.2 -4.1 33 6.0 N 15 19 8 10 1018.2 - 0.0
21/05:00am 8.2 4.0 -4.2 41 4.5 N 9 13 5 7 1018.0 - 0.0
21/04:30am 8.3 4.0 -4.5 40 4.7 N 9 11 5 6 1017.9 - 0.0
21/04:00am 8.6 4.7 -4.9 38 4.9 NW 7 9 4 5 1017.7 - 0.0
21/03:30am 9.2 5.3 -4.7 37 5.1 NNW 7 7 4 4 1017.5 - 0.0
21/03:00am 9.0 5.0 -5.2 36 5.1 NNW 7 7 4 4 1017.4 1016.6 0.0
21/02:30am 9.9 5.6 -4.8 35 5.4 N 9 9 5 5 1017.5 - 0.0
21/02:00am 10.1 6.2 -4.6 35 5.5 N 7 9 4 5 1017.6 - 0.0
21/01:30am 11.1 6.5 -4.5 33 5.9 NNE 11 11 6 6 1017.8 - 0.0
21/01:00am 10.6 5.9 -4.6 34 5.7 NNE 11 13 6 7 1018.0 - 0.0
21/12:30am 10.3 5.6 -4.9 34 5.6 NNE 11 11 6 6 1018.2 - 0.0
21/12:00am 11.2 6.9 -4.5 33 5.9 N 9 11 5 6 1018.3 1017.5 0.0
 
Date/Time
WST
Temp
°C
App
Temp
°C
Dew
Point
Rel
Hum
%
Delta-T
°C
Wind Press
QNH
hPa
Press
MSL
hPa
Rain
since 9 am
mm
Dir
 
Spd
km/h
Gust
km/h
Spd
kts
Gust
kts
20/11:30pm 11.1 7.2 -4.9 32 6.0 N 7 9 4 5 1018.3 - 0.0
20/11:00pm 12.2 8.5 -4.4 31 6.3 N 6 7 3 4 1018.4 - 0.0
20/10:30pm 13.3 9.0 -4.8 28 6.9 NNE 9 11 5 6 1018.5 - 0.0
20/10:00pm 14.2 9.6 -4.5 27 7.3 NNE 11 13 6 7 1018.6 - 0.0
20/09:30pm 15.0 9.7 -3.8 27 7.5 NNE 15 17 8 9 1018.7 - 0.0
20/09:00pm 14.0 9.4 -3.7 29 7.0 NE 11 13 6 7 1018.6 1017.8 0.0
20/08:30pm 13.3 8.7 -3.9 30 6.7 NNE 11 11 6 6 1018.6 - 0.0
20/08:00pm 14.2 10.4 -4.0 28 7.2 N 7 9 4 5 1018.3 - 0.0
20/07:30pm 14.9 10.6 -4.4 26 7.6 NE 9 11 5 6 1018.1 - 0.0
20/07:00pm 16.2 12.4 -3.8 25 8.1 ENE 7 7 4 4 1017.8 - 0.0
20/06:30pm 18.0 14.2 -4.0 22 9.0 ESE 7 9 4 5 1017.6 - 0.0
20/06:00pm 20.9 18.0 -4.3 18 10.5 SSW 2 7 1 4 1017.3 1016.5 0.0
20/05:30pm 22.9 19.5 -5.1 15 11.8 WSW 4 7 2 4 1017.2 - 0.0
20/05:00pm 24.9 20.5 -5.4 13 12.9 W 9 13 5 7 1017.0 - 0.0
20/04:30pm 25.3 19.8 -5.1 13 13.1 WSW 15 24 8 13 1016.6 - 0.0
20/04:00pm 26.0 22.0 -5.6 12 13.5 NW 7 13 4 7 1016.4 - 0.0
20/03:30pm 26.3 21.2 -5.3 12 13.6 W 13 17 7 9 1016.4 - 0.0
20/03:00pm 26.1 20.6 -5.5 12 13.6 W 15 20 8 11 1016.4 1015.6 0.0
20/02:30pm 26.5 21.4 -5.2 12 13.7 NNW 13 20 7 11 1016.4 - 0.0
20/02:00pm 25.8 19.5 -5.7 12 13.4 WNW 19 30 10 16 1016.7 - 0.0
20/01:30pm 25.8 19.5 -5.7 12 13.4 NNW 19 32 10 17 1016.9 - 0.0

Other Formats:

Comma delimited format used in spreadsheet applications
http://www.bom.gov.au/fwo/IDW60801/IDW60801.94457.axf

JavaScript Object Notation format (JSON) in row-major order
http://www.bom.gov.au/fwo/IDW60801/IDW60801.94457.json